Mc Cleary, Washington
Current Conditions -  °F | °C
As of 6:53 AM on Sunday 21 Dec 2014 (Local Time) from KSHN Reporting Station
Broken Clouds Broken Clouds  
Wind Chill: 50°   Ceiling: 1500
Heat Index: 50°   Visibility: 10mi
Dew Point: 47°   Wind: 17mph
Humidity: 89%   Direction: 240°WSW
Pressure: 29.8"   Gusts: 25mph
Location:  47.0427°N, 123.269°W
Report Text: KSHN 211453Z AUTO 24015G22KT 10SM BKN015 BKN024 10/08 A2980 RMK AO2 RAE1359 SLP091 P0000 60002 T01000083 53009
Loading
Personal Weather Stations






























Interactive Weather Map New forecast layout! Learn more

10-Day Weather Forecast

Advertisements
Track Severe Weather on mobile